Outlook, Washington
Current Conditions -  °F | °C
As of 10:53 PM on Friday 24 Oct 2014 (Local Time) from KYKM Reporting Station
Overcast Overcast  
Wind Chill: 45°   Ceiling: 2400
Heat Index: 48°   Visibility: 10mi
Dew Point: 45°   Wind: 7mph
Humidity: 89%   Direction: 260°W
Pressure: 29.92"   Gusts: NA
Location:  46.33°N, 120.09°W
Report Text: KYKM 250553Z AUTO 26006KT 10SM OVC024 09/07 A2992 RMK AO2 SLP135 60019 T00890072 10106 20089 58011
Loading
Personal Weather Stations






























Interactive Weather Map
Tropical Storm Tracking
New forecast layout! Learn more

10-Day Weather Forecast

Advertisements
Track Severe Weather on mobile